createdAt,value
2023-03-30T00:01:10.636Z,99535.94
2023-03-30T00:03:39.028Z,99530.50
2023-03-30T00:06:07.345Z,99534.69
2023-03-30T00:08:33.722Z,99533.16
2023-03-30T00:11:15.421Z,99529.03
2023-03-30T00:13:41.862Z,99531.44
2023-03-30T00:16:10.904Z,99522.09
2023-03-30T00:18:39.280Z,99516.81
2023-03-30T00:21:07.435Z,99521.88
2023-03-30T00:23:33.929Z,99521.69
2023-03-30T00:26:00.647Z,99520.94
2023-03-30T00:28:30.581Z,99516.44
2023-03-30T00:30:57.427Z,99509.63
2023-03-30T00:33:33.936Z,99500.47
2023-03-30T00:36:09.014Z,99513.06
2023-03-30T00:38:35.363Z,99504.50
2023-03-30T00:41:02.218Z,99508.31
2023-03-30T00:43:29.752Z,99515.00
2023-03-30T00:45:57.455Z,99503.50
2023-03-30T00:48:41.775Z,99488.25
2023-03-30T00:51:11.133Z,99499.59
2023-03-30T00:53:41.138Z,99500.56
2023-03-30T00:56:09.995Z,99498.94
2023-03-30T00:58:38.673Z,99491.84
2023-03-30T01:01:10.410Z,99490.31
2023-03-30T01:03:43.512Z,99498.34
2023-03-30T01:06:12.114Z,99492.31
2023-03-30T01:08:39.263Z,99489.16
2023-03-30T01:11:07.083Z,99477.97
2023-03-30T01:13:37.067Z,99488.59
2023-03-30T01:16:23.771Z,99467.66
2023-03-30T01:19:03.091Z,99492.03
2023-03-30T01:22:00.072Z,99484.19
2023-03-30T01:24:49.088Z,99483.94
2023-03-30T01:27:39.134Z,99491.28
2023-03-30T01:30:36.225Z,99491.56
2023-03-30T01:33:14.195Z,99495.44
2023-03-30T01:35:46.697Z,99490.47
2023-03-30T01:38:47.443Z,99490.19
2023-03-30T01:41:30.051Z,99493.81
2023-03-30T01:44:19.457Z,99497.44
2023-03-30T01:46:50.787Z,99496.59
2023-03-30T01:49:27.714Z,99492.56
2023-03-30T01:52:15.624Z,99481.97
2023-03-30T01:55:11.181Z,99476.41
2023-03-30T01:57:46.225Z,99485.31
2023-03-30T02:00:17.793Z,99486.94
2023-03-30T02:02:56.059Z,99499.63
2023-03-30T02:05:23.523Z,99499.06
2023-03-30T02:07:55.144Z,99494.19
2023-03-30T02:10:25.571Z,99493.22
2023-03-30T02:12:52.679Z,99486.91
2023-03-30T02:15:19.823Z,99502.22
2023-03-30T02:17:47.721Z,99488.28
2023-03-30T02:20:17.681Z,99488.84
2023-03-30T02:22:45.030Z,99515.19
2023-03-30T02:25:13.046Z,99505.09
2023-03-30T02:27:41.914Z,99512.91
2023-03-30T02:30:09.516Z,99508.47
2023-03-30T02:32:43.458Z,99490.09
2023-03-30T02:35:15.896Z,99484.56
2023-03-30T02:38:06.551Z,99486.06
2023-03-30T02:41:01.301Z,99477.25
2023-03-30T02:43:44.570Z,99471.19
2023-03-30T02:46:44.201Z,99445.16
2023-03-30T02:49:34.626Z,99474.59
2023-03-30T02:52:03.666Z,99473.25
2023-03-30T02:54:36.679Z,99471.91
2023-03-30T02:57:03.129Z,99492.09
2023-03-30T02:59:55.959Z,99507.09
2023-03-30T03:02:35.297Z,99517.31
2023-03-30T03:05:04.006Z,99500.59
2023-03-30T03:07:33.784Z,99510.66
2023-03-30T03:10:01.056Z,99513.03
2023-03-30T03:12:28.795Z,99505.88
2023-03-30T03:14:55.157Z,99511.13
2023-03-30T03:17:22.389Z,99495.38
2023-03-30T03:19:49.334Z,99533.50
2023-03-30T03:22:16.006Z,99537.91
2023-03-30T03:24:42.404Z,99534.47
2023-03-30T03:27:08.757Z,99549.75
2023-03-30T03:29:35.117Z,99535.41
2023-03-30T03:32:01.417Z,99531.41
2023-03-30T03:34:31.226Z,99541.34
2023-03-30T03:36:58.891Z,99532.13
2023-03-30T03:39:25.842Z,99524.84
2023-03-30T03:41:52.237Z,99509.06
2023-03-30T03:44:18.590Z,99499.19
2023-03-30T03:46:44.917Z,99470.94
2023-03-30T03:49:11.812Z,99463.66
2023-03-30T03:51:38.205Z,99441.25
2023-03-30T03:54:04.566Z,99437.03
2023-03-30T03:56:31.129Z,99429.28
2023-03-30T03:58:57.350Z,99428.44
2023-03-30T04:01:23.656Z,99417.06
2023-03-30T04:03:49.944Z,99403.06
2023-03-30T04:06:16.363Z,99401.13
2023-03-30T04:08:43.750Z,99381.06
2023-03-30T04:11:11.970Z,99382.63
2023-03-30T04:13:39.282Z,99375.66
2023-03-30T04:16:07.292Z,99366.88
2023-03-30T04:18:34.610Z,99365.25
2023-03-30T04:21:05.518Z,99356.28
2023-03-30T04:23:33.821Z,99356.28
2023-03-30T04:26:04.613Z,99364.28
2023-03-30T04:28:32.903Z,99360.75
2023-03-30T04:31:00.887Z,99352.06
2023-03-30T04:33:27.281Z,99349.47
2023-03-30T04:35:53.927Z,99337.94
2023-03-30T04:38:22.140Z,99330.69
2023-03-30T04:40:50.041Z,99327.69
2023-03-30T04:43:19.969Z,99339.81
2023-03-30T04:45:54.612Z,99344.53
2023-03-30T04:48:23.214Z,99352.00
2023-03-30T04:50:50.994Z,99368.44
2023-03-30T04:53:18.431Z,99389.94
2023-03-30T04:55:49.500Z,99411.63
2023-03-30T04:58:16.043Z,99433.78
2023-03-30T05:00:42.488Z,99444.63
2023-03-30T05:03:08.804Z,99453.25
2023-03-30T05:05:35.254Z,99453.00
2023-03-30T05:08:01.573Z,99450.81
2023-03-30T05:10:27.961Z,99433.50
2023-03-30T05:12:55.684Z,99420.28
2023-03-30T05:15:22.346Z,99422.78
2023-03-30T05:17:49.450Z,99430.22
2023-03-30T05:20:15.930Z,99444.94
2023-03-30T05:22:42.264Z,99442.41
2023-03-30T05:25:09.011Z,99448.09
2023-03-30T05:27:35.790Z,99414.34
2023-03-30T05:30:02.180Z,99396.47
2023-03-30T05:32:28.589Z,99401.59
2023-03-30T05:34:55.288Z,99408.28
2023-03-30T05:37:21.621Z,99409.78
2023-03-30T05:39:48.395Z,99423.81
2023-03-30T05:42:14.696Z,99441.06
2023-03-30T05:44:41.204Z,99433.63
2023-03-30T05:47:07.822Z,99476.41
2023-03-30T05:49:34.027Z,99477.34
2023-03-30T05:52:01.073Z,99476.50
2023-03-30T05:54:27.858Z,99478.63
2023-03-30T05:56:54.195Z,99486.69
2023-03-30T05:59:21.577Z,99501.03
2023-03-30T06:01:47.908Z,99502.06
2023-03-30T06:04:16.227Z,99506.81
2023-03-30T06:06:42.916Z,99504.63
2023-03-30T06:09:10.196Z,99511.28
2023-03-30T06:11:36.496Z,99514.31
2023-03-30T06:14:02.794Z,99508.41
2023-03-30T06:16:29.167Z,99493.03
2023-03-30T06:18:55.633Z,99474.81
2023-03-30T06:21:22.115Z,99480.22
2023-03-30T06:23:49.031Z,99454.59
2023-03-30T06:26:15.639Z,99440.97
2023-03-30T06:28:42.064Z,99484.84
2023-03-30T06:31:09.696Z,99491.56
2023-03-30T06:33:37.602Z,99505.25
2023-03-30T06:36:10.935Z,99499.81
2023-03-30T06:38:37.277Z,99496.97
2023-03-30T06:41:08.320Z,99483.81
2023-03-30T06:43:34.714Z,99468.28
2023-03-30T06:46:01.416Z,99483.59
2023-03-30T06:48:28.022Z,99479.94
2023-03-30T06:50:54.432Z,99448.84
2023-03-30T06:53:21.839Z,99455.91
2023-03-30T06:55:53.112Z,99448.19
2023-03-30T06:58:19.416Z,99456.19
2023-03-30T07:00:46.233Z,99467.91
2023-03-30T07:03:12.590Z,99481.22
2023-03-30T07:05:39.279Z,99490.78
2023-03-30T07:08:07.468Z,99482.88
2023-03-30T07:10:33.898Z,99467.13
2023-03-30T07:13:00.538Z,99474.25
2023-03-30T07:15:27.291Z,99466.34
2023-03-30T07:17:53.650Z,99465.53
2023-03-30T07:20:20.421Z,99455.19
2023-03-30T07:22:46.728Z,99436.78
2023-03-30T07:25:13.655Z,99438.13
2023-03-30T07:27:40.950Z,99416.06
2023-03-30T07:30:20.720Z,99395.78
2023-03-30T07:32:50.131Z,99346.47
2023-03-30T07:35:16.852Z,99363.00
2023-03-30T07:37:43.131Z,99351.31
2023-03-30T07:40:10.138Z,99386.63
2023-03-30T07:42:37.037Z,99405.84
2023-03-30T07:45:07.305Z,99428.59
2023-03-30T07:47:33.772Z,99441.00
2023-03-30T07:50:00.292Z,99456.78
2023-03-30T07:52:27.255Z,99464.63
2023-03-30T07:54:54.607Z,99463.53
2023-03-30T07:57:22.020Z,99475.03
2023-03-30T07:59:48.753Z,99437.28
2023-03-30T08:02:15.412Z,99456.78
2023-03-30T08:04:43.042Z,99430.69
2023-03-30T08:07:10.543Z,99431.34
2023-03-30T08:09:37.022Z,99439.16
2023-03-30T08:12:03.890Z,99456.09
2023-03-30T08:14:30.278Z,99482.56
2023-03-30T08:16:56.883Z,99494.25
2023-03-30T08:19:24.881Z,99495.81
2023-03-30T08:21:51.202Z,99479.50
2023-03-30T08:24:17.574Z,99496.75
2023-03-30T08:26:43.870Z,99495.03
2023-03-30T08:29:10.448Z,99509.84
2023-03-30T08:31:37.587Z,99500.69
2023-03-30T08:34:04.508Z,99514.78
2023-03-30T08:36:31.538Z,99498.13
2023-03-30T08:38:58.023Z,99506.50
2023-03-30T08:41:24.288Z,99516.69
2023-03-30T08:44:09.175Z,99513.34
2023-03-30T08:46:35.891Z,99506.59
2023-03-30T08:49:11.631Z,99501.88
2023-03-30T08:51:39.368Z,99505.56
2023-03-30T08:54:07.240Z,99494.88
2023-03-30T08:56:59.749Z,99497.78
2023-03-30T08:59:38.279Z,99512.22
2023-03-30T09:02:16.588Z,99500.94
2023-03-30T09:04:57.734Z,99509.50
2023-03-30T09:07:28.591Z,99517.56
2023-03-30T09:09:57.264Z,99500.94
2023-03-30T09:12:42.808Z,99515.38
2023-03-30T09:15:14.793Z,99513.75
2023-03-30T09:17:46.928Z,99493.88
2023-03-30T09:20:22.965Z,99512.25
2023-03-30T09:22:51.020Z,99501.41
2023-03-30T09:25:28.036Z,99481.09
2023-03-30T09:28:02.955Z,99500.94
2023-03-30T09:30:39.472Z,99513.72
2023-03-30T09:33:26.429Z,99516.06
2023-03-30T09:36:13.157Z,99519.81
2023-03-30T09:38:42.153Z,99528.66
2023-03-30T09:41:30.240Z,99512.13
2023-03-30T09:43:58.544Z,99499.28
2023-03-30T09:46:24.914Z,99505.72
2023-03-30T09:48:51.775Z,99498.34
2023-03-30T09:51:19.946Z,99499.84
2023-03-30T09:53:49.136Z,99505.19
2023-03-30T09:56:34.604Z,99504.88
2023-03-30T09:59:22.201Z,99501.97
2023-03-30T10:01:48.634Z,99497.34
2023-03-30T10:04:16.508Z,99482.13
2023-03-30T10:06:48.529Z,99496.59
2023-03-30T10:09:17.483Z,99502.31
2023-03-30T10:11:48.149Z,99484.25
2023-03-30T10:14:34.804Z,99504.81
2023-03-30T10:17:03.306Z,99507.03
2023-03-30T10:19:33.554Z,99515.69
2023-03-30T10:22:04.651Z,99506.78
2023-03-30T10:24:33.185Z,99507.94
2023-03-30T10:27:07.187Z,99499.34
2023-03-30T10:29:33.491Z,99502.53
2023-03-30T10:32:21.822Z,99499.25
2023-03-30T10:34:53.409Z,99488.13
2023-03-30T10:37:24.003Z,99502.69
2023-03-30T10:39:52.327Z,99508.19
2023-03-30T10:42:23.662Z,99511.72
2023-03-30T10:45:00.335Z,99487.09
2023-03-30T10:47:51.489Z,99498.47
2023-03-30T10:50:30.216Z,99506.81
2023-03-30T10:53:15.061Z,99504.50
2023-03-30T10:56:01.359Z,99512.06
2023-03-30T10:58:58.523Z,99509.19
2023-03-30T11:01:57.249Z,99506.50
2023-03-30T11:04:35.441Z,99508.63
2023-03-30T11:07:02.651Z,99493.34
2023-03-30T11:09:34.858Z,99503.91
2023-03-30T11:12:19.772Z,99490.44
2023-03-30T11:14:48.963Z,99492.81
2023-03-30T11:17:40.641Z,99491.13
2023-03-30T11:20:28.183Z,99483.38
2023-03-30T11:23:05.782Z,99495.34
2023-03-30T11:25:58.128Z,99501.63
2023-03-30T11:28:42.845Z,99504.56
2023-03-30T11:31:21.193Z,99497.16
2023-03-30T11:33:56.849Z,99483.66
2023-03-30T11:36:40.157Z,99491.88
2023-03-30T11:39:28.900Z,99488.28
2023-03-30T11:42:14.979Z,99487.44
2023-03-30T11:44:42.201Z,99472.22
2023-03-30T11:47:45.887Z,99478.53
2023-03-30T11:50:27.785Z,99486.28
2023-03-30T11:53:24.321Z,99466.91
2023-03-30T11:56:05.666Z,99459.19
2023-03-30T11:58:36.382Z,99462.91
2023-03-30T12:01:30.237Z,99458.19
2023-03-30T12:04:06.109Z,99481.03
2023-03-30T12:06:37.969Z,99481.75
2023-03-30T12:09:25.959Z,99477.13
2023-03-30T12:11:55.349Z,99474.41
2023-03-30T12:14:55.512Z,99474.59
2023-03-30T12:17:39.147Z,99463.94
2023-03-30T12:20:09.597Z,99464.31
2023-03-30T12:23:17.520Z,99455.19
2023-03-30T12:26:06.905Z,99448.69
2023-03-30T12:29:00.585Z,99452.22
2023-03-30T12:32:03.048Z,99446.53
2023-03-30T12:34:41.102Z,99435.38
2023-03-30T12:37:22.295Z,99420.34
2023-03-30T12:40:06.458Z,99429.09
2023-03-30T12:42:36.484Z,99416.94
2023-03-30T12:45:30.272Z,99410.44
2023-03-30T12:48:24.705Z,99405.41
2023-03-30T12:51:18.795Z,99410.84
2023-03-30T12:54:09.954Z,99396.88
2023-03-30T12:57:12.106Z,99391.63
2023-03-30T13:00:08.525Z,99388.19
2023-03-30T13:03:12.755Z,99409.56
2023-03-30T13:05:40.955Z,99403.75
2023-03-30T13:08:42.458Z,99366.25
2023-03-30T13:11:15.854Z,99394.78
2023-03-30T13:13:52.066Z,99387.91
2023-03-30T13:16:48.710Z,99405.31
2023-03-30T13:19:33.781Z,99418.38
2023-03-30T13:22:12.117Z,99420.22
2023-03-30T13:24:41.721Z,99406.56
2023-03-30T13:27:13.916Z,99425.66
2023-03-30T13:30:13.693Z,99428.53
2023-03-30T13:32:40.027Z,99421.97
2023-03-30T13:35:30.723Z,99427.16
2023-03-30T13:38:30.851Z,99427.16
2023-03-30T13:41:18.236Z,99430.34
2023-03-30T13:44:15.781Z,99437.03
2023-03-30T13:46:51.921Z,99415.38
2023-03-30T13:49:55.922Z,99420.31
2023-03-30T13:52:38.349Z,99412.16
2023-03-30T13:55:14.796Z,99398.38
2023-03-30T13:57:42.166Z,99388.16
2023-03-30T14:00:24.923Z,99383.63
2023-03-30T14:02:51.587Z,99407.19
2023-03-30T14:05:21.728Z,99403.31
2023-03-30T14:07:48.892Z,99404.56
2023-03-30T14:10:20.911Z,99405.16
2023-03-30T14:12:52.942Z,99436.69
2023-03-30T14:15:35.730Z,99409.44
2023-03-30T14:18:04.548Z,99418.97
2023-03-30T14:20:46.611Z,99433.63
2023-03-30T14:23:20.351Z,99425.53
2023-03-30T14:25:47.644Z,99415.25
2023-03-30T14:28:18.481Z,99430.59
2023-03-30T14:31:11.869Z,99422.09
2023-03-30T14:33:40.762Z,99421.38
2023-03-30T14:36:09.805Z,99420.66
2023-03-30T14:38:39.776Z,99456.22
2023-03-30T14:41:28.007Z,99463.25
2023-03-30T14:44:01.255Z,99448.50
2023-03-30T14:46:40.109Z,99456.88
2023-03-30T14:49:08.266Z,99461.97
2023-03-30T14:51:40.377Z,99458.34
2023-03-30T14:54:08.655Z,99460.38
2023-03-30T14:56:35.575Z,99471.66
2023-03-30T14:59:02.581Z,99472.44
2023-03-30T15:01:33.640Z,99458.59
2023-03-30T15:04:07.219Z,99450.06
2023-03-30T15:06:33.667Z,99456.97
2023-03-30T15:09:02.320Z,99455.31
2023-03-30T15:11:31.820Z,99457.50
2023-03-30T15:14:03.857Z,99458.25
2023-03-30T15:16:32.970Z,99462.38
2023-03-30T15:19:21.051Z,99466.44
2023-03-30T15:21:53.277Z,99466.41
2023-03-30T15:24:25.872Z,99477.41
2023-03-30T15:26:55.979Z,99483.44
2023-03-30T15:29:23.269Z,99481.22
2023-03-30T15:32:20.217Z,99485.00
2023-03-30T15:35:15.155Z,99486.56
2023-03-30T15:37:58.129Z,99484.41
2023-03-30T15:40:42.185Z,99474.69
2023-03-30T15:43:30.844Z,99465.69
2023-03-30T15:46:21.809Z,99460.94
2023-03-30T15:48:50.569Z,99452.84
2023-03-30T15:51:24.182Z,99454.47
2023-03-30T15:54:04.387Z,99451.72
2023-03-30T15:56:40.472Z,99469.13
2023-03-30T15:59:15.771Z,99484.50
2023-03-30T16:01:55.425Z,99484.09
2023-03-30T16:04:24.643Z,99483.50
2023-03-30T16:06:52.659Z,99484.63
2023-03-30T16:09:19.235Z,99494.47
2023-03-30T16:11:46.718Z,99511.91
2023-03-30T16:14:16.662Z,99540.72
2023-03-30T16:16:44.005Z,99560.84
2023-03-30T16:19:12.450Z,99533.22
2023-03-30T16:21:38.832Z,99525.31
2023-03-30T16:24:05.933Z,99523.69
2023-03-30T16:26:32.275Z,99525.56
2023-03-30T16:28:58.696Z,99526.19
2023-03-30T16:31:25.171Z,99525.25
2023-03-30T16:33:52.297Z,99519.66
2023-03-30T16:36:21.428Z,99510.97
2023-03-30T16:38:48.240Z,99521.00
2023-03-30T16:41:21.544Z,99512.75
2023-03-30T16:43:48.534Z,99501.56
2023-03-30T16:46:16.914Z,99492.88
2023-03-30T16:48:43.904Z,99484.44
2023-03-30T16:51:13.676Z,99492.16
2023-03-30T16:53:41.162Z,99497.41
2023-03-30T16:56:15.633Z,99498.19
2023-03-30T16:58:41.937Z,99499.59
2023-03-30T17:01:12.942Z,99481.41
2023-03-30T17:03:39.829Z,99492.88
2023-03-30T17:06:06.627Z,99505.44
2023-03-30T17:08:33.525Z,99509.88
2023-03-30T17:11:03.556Z,99506.38
2023-03-30T17:13:31.846Z,99502.75
2023-03-30T17:16:00.887Z,99495.88
2023-03-30T17:18:27.984Z,99502.31
2023-03-30T17:20:56.188Z,99503.41
2023-03-30T17:23:25.630Z,99497.44
2023-03-30T17:25:53.878Z,99502.34
2023-03-30T17:28:22.109Z,99510.75
2023-03-30T17:30:49.590Z,99514.75
2023-03-30T17:33:16.208Z,99514.09
2023-03-30T17:35:44.693Z,99513.75
2023-03-30T17:38:11.288Z,99515.88
2023-03-30T17:40:38.921Z,99520.53
2023-03-30T17:43:10.645Z,99526.19
2023-03-30T17:45:38.747Z,99534.56
2023-03-30T17:48:07.313Z,99500.78
2023-03-30T17:50:39.349Z,99519.19
2023-03-30T17:53:05.699Z,99531.44
2023-03-30T17:55:33.442Z,99522.72
2023-03-30T17:58:00.156Z,99533.13
2023-03-30T18:00:29.415Z,99535.06
2023-03-30T18:02:56.094Z,99544.16
2023-03-30T18:05:23.644Z,99547.84
2023-03-30T18:07:50.773Z,99545.47
2023-03-30T18:10:51.557Z,99539.59
2023-03-30T18:13:19.865Z,99542.25
2023-03-30T18:15:49.779Z,99539.66
2023-03-30T18:18:22.621Z,99543.28
2023-03-30T18:20:56.940Z,99542.41
2023-03-30T18:23:23.632Z,99538.00
2023-03-30T18:25:50.183Z,99544.13
2023-03-30T18:28:27.172Z,99546.66
2023-03-30T18:30:57.162Z,99561.75
2023-03-30T18:33:24.900Z,99559.97
2023-03-30T18:35:52.996Z,99563.50
2023-03-30T18:38:21.360Z,99560.91
2023-03-30T18:40:49.846Z,99568.94
2023-03-30T18:43:17.158Z,99567.16
2023-03-30T18:45:48.559Z,99559.53
2023-03-30T18:48:18.231Z,99576.25
2023-03-30T18:50:46.633Z,99578.06
2023-03-30T18:53:15.686Z,99580.72
2023-03-30T18:55:46.914Z,99590.47
2023-03-30T18:58:16.360Z,99583.38
2023-03-30T19:00:42.807Z,99585.94
2023-03-30T19:03:09.368Z,99585.94
2023-03-30T19:05:36.001Z,99585.03
2023-03-30T19:08:02.404Z,99593.81
2023-03-30T19:10:31.117Z,99587.53
2023-03-30T19:12:57.463Z,99604.28
2023-03-30T19:15:32.886Z,99596.38
2023-03-30T19:18:00.433Z,99603.16
2023-03-30T19:20:28.085Z,99588.69
2023-03-30T19:22:54.483Z,99596.69
2023-03-30T19:25:23.226Z,99584.44
2023-03-30T19:28:01.767Z,99563.56
2023-03-30T19:30:31.336Z,99583.50
2023-03-30T19:32:59.479Z,99569.75
2023-03-30T19:35:26.474Z,99563.72
2023-03-30T19:37:53.449Z,99573.97
2023-03-30T19:40:21.157Z,99571.31
2023-03-30T19:42:48.484Z,99556.94
2023-03-30T19:45:18.015Z,99578.13
2023-03-30T19:47:44.403Z,99564.28
2023-03-30T19:50:15.583Z,99574.94
2023-03-30T19:52:42.536Z,99574.34
2023-03-30T19:55:10.347Z,99573.34
2023-03-30T19:57:37.379Z,99569.09
2023-03-30T20:00:12.511Z,99572.03
2023-03-30T20:02:45.403Z,99581.88
2023-03-30T20:05:12.842Z,99589.22
2023-03-30T20:07:40.466Z,99589.41
2023-03-30T20:10:09.685Z,99579.38
2023-03-30T20:12:36.453Z,99581.00
2023-03-30T20:15:05.664Z,99580.28
2023-03-30T20:17:32.127Z,99588.31
2023-03-30T20:19:58.465Z,99584.00
2023-03-30T20:22:25.507Z,99573.59
2023-03-30T20:24:51.860Z,99578.03
2023-03-30T20:27:18.165Z,99570.28
2023-03-30T20:29:44.498Z,99565.75
2023-03-30T20:32:10.806Z,99562.94
2023-03-30T20:34:37.080Z,99569.91
2023-03-30T20:37:03.403Z,99568.09
2023-03-30T20:39:29.762Z,99563.56
2023-03-30T20:41:58.105Z,99574.09
2023-03-30T20:44:31.739Z,99565.25
2023-03-30T20:46:59.216Z,99559.94
2023-03-30T20:49:26.177Z,99567.97
2023-03-30T20:51:53.179Z,99556.59
2023-03-30T20:54:20.570Z,99552.09
2023-03-30T20:56:47.059Z,99567.03
2023-03-30T20:59:13.468Z,99566.84
2023-03-30T21:01:40.740Z,99562.50
2023-03-30T21:04:08.066Z,99567.25
2023-03-30T21:06:36.030Z,99567.34
2023-03-30T21:09:05.955Z,99550.88
2023-03-30T21:11:35.165Z,99550.34
2023-03-30T21:14:02.241Z,99540.78
2023-03-30T21:16:29.136Z,99545.88
2023-03-30T21:18:55.783Z,99549.38
2023-03-30T21:21:22.080Z,99548.47
2023-03-30T21:23:48.634Z,99554.66
2023-03-30T21:26:18.405Z,99559.03
2023-03-30T21:28:44.721Z,99550.06
2023-03-30T21:31:14.241Z,99552.72
2023-03-30T21:33:40.639Z,99550.91
2023-03-30T21:36:07.701Z,99524.66
2023-03-30T21:38:35.573Z,99534.22
2023-03-30T21:41:06.137Z,99528.84
2023-03-30T21:43:37.684Z,99530.78
2023-03-30T21:46:09.633Z,99513.44
2023-03-30T21:48:38.690Z,99529.91
2023-03-30T21:51:17.043Z,99523.81
2023-03-30T21:53:46.018Z,99503.59
2023-03-30T21:56:13.018Z,99496.69
2023-03-30T21:58:39.564Z,99506.31
2023-03-30T22:01:12.380Z,99501.16
2023-03-30T22:03:43.268Z,99502.22
2023-03-30T22:06:11.687Z,99484.41
2023-03-30T22:08:38.138Z,99486.09
2023-03-30T22:11:11.520Z,99489.03
2023-03-30T22:13:38.098Z,99492.66
2023-03-30T22:16:06.422Z,99495.31
2023-03-30T22:18:33.871Z,99486.53
2023-03-30T22:21:02.855Z,99493.78
2023-03-30T22:23:30.104Z,99484.22
2023-03-30T22:25:56.807Z,99476.44
2023-03-30T22:28:23.251Z,99477.47
2023-03-30T22:30:49.989Z,99461.22
2023-03-30T22:33:17.297Z,99467.28
2023-03-30T22:35:46.622Z,99472.44
2023-03-30T22:38:13.896Z,99469.78
2023-03-30T22:40:41.901Z,99469.06
2023-03-30T22:43:12.531Z,99458.09
2023-03-30T22:45:40.486Z,99462.53
2023-03-30T22:48:07.261Z,99468.88
2023-03-30T22:50:34.861Z,99460.22
2023-03-30T22:53:01.265Z,99444.59
2023-03-30T22:55:27.718Z,99436.44
2023-03-30T22:57:56.525Z,99437.31
2023-03-30T23:00:23.373Z,99432.19
2023-03-30T23:02:50.419Z,99428.88
2023-03-30T23:05:20.840Z,99429.03
2023-03-30T23:07:48.557Z,99410.75
2023-03-30T23:10:17.892Z,99405.31
2023-03-30T23:12:45.099Z,99404.25
2023-03-30T23:15:11.981Z,99403.44
2023-03-30T23:17:38.875Z,99406.16
2023-03-30T23:20:06.894Z,99405.38
2023-03-30T23:22:33.191Z,99398.47
2023-03-30T23:24:59.487Z,99394.06
2023-03-30T23:27:26.095Z,99388.91
2023-03-30T23:29:52.746Z,99381.84
2023-03-30T23:32:19.312Z,99382.88
2023-03-30T23:34:46.486Z,99377.16
2023-03-30T23:37:12.795Z,99370.75
2023-03-30T23:39:39.140Z,99358.38
2023-03-30T23:42:06.441Z,99354.72
2023-03-30T23:44:32.760Z,99352.00
2023-03-30T23:46:59.150Z,99345.03
2023-03-30T23:49:25.420Z,99340.50
2023-03-30T23:51:51.748Z,99343.16
2023-03-30T23:54:18.214Z,99325.78
2023-03-30T23:56:48.811Z,99324.69
2023-03-30T23:59:15.411Z,99327.34
